Česky Dansk Deutsch English Español Suomi Français Magyar Italiano Nederlands norsk Polski Português svenska Türkçe

 

Het Weer

Wajir (Kenia)

07:00, 18 juli 2016 (GMT)

NWNNE
WE
SWSSE
Home            
Wajir Moyale Marsabit Garissa Mandera Isiolo Meru Embu Nanyuki Neghelli Nyeri Lamu Nairobi ACC/FIC/RCC/MET/COM/ Nairobi/Jomo Kenyatta Airport TWR/APP/NOF/Civil Airlines Nakuru Nairobi / Wilson Nairobi / Dagoretti Makindu Masslo / Meslo Lodwar Eldoret Arba Minch Malindi

Om een weerknop op uw website of weblog te plaatsen, copieer onderstaande code en plak die in uw pagina. In het eerste vakje staat HTML-code, in het tweede vakje UBB-code.


Add to Google

Details

Wind speed:4 bf, 14 kn, 7.2 m/s, 16.1 miles/h, 25.9 km/h
Wind direction:S, 170°
Visibility:Greater than 10000 m, 10 km, 32800 ft, 6.2 miles
Clouds:Aufgelockert bewölkt at 2600 ft, 792 m
Temperature:28°C, 82°F
Gefühlte Temperatur:28°C, 82°F
Dew-point:16°C, 61°F
Atmospheric pressure:1016 hPa, 762.1 mmHg, 30.00 inHg, 1.003 atm
Relative humidity:48.1 %
METAR:HKWJ 180700Z 17014KT 9999 SCT026 28/16 Q1016

Snelkoppelingen

Actuele weersinformatie van de hele wereld. Voeg locaties toe met het plus (+) symbool. Deze snelkoppelingen kunnen worden toegevoegd aan Google.

Lid van de Technetium groep

website free tracking
StatCounter NetStat W3C Validator

26-09-2022 11:48:08
astro.technetium.be money.technetium.be phote.technetium.be tafeltennistafel.technetium.be www.ligfiets.net